KGRN

Details ICAO KGRN
Name GORDON MUNI
Region United States
Timezone America/Denver (UTC-6.0)
Plans Departing 0
Arriving 0
Stats Elevation 3,562 ft / 1,086 m (AMSL)
Location 42.805514° -102.176128°
Runways 2
Magnetic Variation 6.768° E
Sunrise 2018-05-22 11:20:56 UTC / 2018-05-22 05:20:56 Local
Sunset 2018-05-23 02:12:43 UTC / 2018-05-22 20:12:43 Local
Advertisement - Login to hide

Runways

ID Width Length Bearing (true) Bearing (mag) Surface Threshold Offset Overrun Length
04 75 ft / 23 m 5,207 ft / 1,587 m 48.60° 41.83° Asphalt 0 ft / 0 m 0 ft / 0 m
11 49 ft / 15 m 2,315 ft / 706 m 122.81° 116.04° Asphalt 0 ft / 0 m 0 ft / 0 m
22 75 ft / 23 m 5,207 ft / 1,587 m 228.60° 221.83° Asphalt 0 ft / 0 m 0 ft / 0 m
29 49 ft / 15 m 2,315 ft / 706 m 302.82° 296.05° Asphalt 0 ft / 0 m 0 ft / 0 m

Map

Weather


0- 5 10 15 20 25 30 35+ Temperature / ° C

Clouds and Precipitation
Forecast for 2018-05-23 00:00 UTC. Updated 43 minutes ago

Ground ~20,000 ft ~40,000 ft Winds

METAR

KGRN 222355Z AUTO 16012G19KT 10SM VCTS CLR 26/12 A2989 RMK AO2 LTG DSNT N AND NE T02620120 10282 20255

TAF

Not found

Frequencies

Unicom 122.80 MHz CTAF/UNICOM
Warning: Do not use this data for real-world aviation or navigation. No guarantee of current accuracy is given.